createdAt,value
2019-01-28T00:02:26.196Z,3.23
2019-01-28T00:04:56.527Z,1.93
2019-01-28T00:07:26.737Z,3.03
2019-01-28T00:09:57.146Z,4.33
2019-01-28T00:12:27.478Z,3.50
2019-01-28T00:15:16.771Z,2.50
2019-01-28T00:18:06.191Z,3.23
2019-01-28T00:20:36.464Z,2.63
2019-01-28T00:23:06.559Z,4.07
2019-01-28T00:25:37.086Z,2.43
2019-01-28T00:28:26.686Z,2.67
2019-01-28T00:31:16.005Z,5.33
2019-01-28T00:34:06.440Z,2.97
2019-01-28T00:36:55.671Z,2.90
2019-01-28T00:39:44.853Z,1.80
2019-01-28T00:42:34.052Z,2.03
2019-01-28T00:45:23.289Z,1.90
2019-01-28T00:47:53.517Z,2.00
2019-01-28T00:50:23.744Z,2.20
2019-01-28T00:52:54.300Z,2.60
2019-01-28T00:55:43.866Z,3.67
2019-01-28T00:58:33.361Z,2.20
2019-01-28T01:01:22.859Z,1.70
2019-01-28T01:06:49.722Z,2.27
2019-01-28T01:09:20.094Z,2.70
2019-01-28T01:11:50.295Z,3.30
2019-01-28T01:14:39.981Z,2.80
2019-01-28T01:17:29.231Z,2.50
2019-01-28T01:19:59.400Z,2.53
2019-01-28T01:22:29.817Z,2.53
2019-01-28T01:24:59.934Z,2.87
2019-01-28T01:27:30.104Z,3.40
2019-01-28T01:30:00.539Z,2.93
2019-01-28T01:32:30.761Z,2.27
2019-01-28T01:35:00.927Z,2.60
2019-01-28T01:37:31.408Z,2.77
2019-01-28T01:40:01.640Z,2.23
2019-01-28T01:42:31.750Z,1.77
2019-01-28T01:45:01.871Z,1.60
2019-01-28T01:47:32.760Z,1.77
2019-01-28T01:50:03.084Z,4.00
2019-01-28T01:52:33.229Z,4.30
2019-01-28T01:55:22.651Z,2.83
2019-01-28T01:57:52.798Z,2.47
2019-01-28T02:00:23.176Z,3.03
2019-01-28T02:02:53.283Z,2.33
2019-01-28T02:05:23.872Z,2.57
2019-01-28T02:08:13.037Z,5.33
2019-01-28T02:11:02.199Z,2.67
2019-01-28T02:13:51.950Z,2.57
2019-01-28T02:16:22.165Z,4.27
2019-01-28T02:19:11.788Z,4.80
2019-01-28T02:22:01.353Z,2.43
2019-01-28T02:24:50.530Z,2.73
2019-01-28T02:27:20.820Z,2.47
2019-01-28T02:30:10.907Z,2.07
2019-01-28T02:32:52.468Z,4.00
2019-01-28T02:38:26.393Z,4.47
2019-01-28T02:40:56.624Z,1.97
2019-01-28T02:43:46.181Z,1.30
2019-01-28T02:46:35.379Z,4.33
2019-01-28T02:49:24.683Z,2.57
2019-01-28T02:52:13.941Z,1.57
2019-01-28T02:54:44.200Z,2.57
2019-01-28T02:57:14.487Z,3.27
2019-01-28T03:00:03.984Z,2.40
2019-01-28T03:02:53.188Z,2.03
2019-01-28T03:05:23.665Z,2.83
2019-01-28T03:07:53.838Z,2.87
2019-01-28T03:10:43.054Z,3.07
2019-01-28T03:13:32.190Z,4.37
2019-01-28T03:16:21.643Z,2.00
2019-01-28T03:19:10.882Z,1.60
2019-01-28T03:22:00.535Z,2.17
2019-01-28T03:24:49.886Z,2.23
2019-01-28T03:27:21.055Z,1.00
2019-01-28T03:29:51.262Z,1.33
2019-01-28T03:32:32.858Z,2.23
2019-01-28T03:35:14.555Z,1.50
2019-01-28T03:40:27.812Z,3.57
2019-01-28T03:43:38.825Z,2.17
2019-01-28T03:46:28.030Z,2.63
2019-01-28T03:49:17.515Z,0.80
2019-01-28T03:55:04.183Z,1.93
2019-01-28T03:57:53.998Z,2.23
2019-01-28T04:00:25.136Z,2.10
2019-01-28T04:03:15.367Z,3.30
2019-01-28T04:05:45.643Z,1.50
2019-01-28T04:08:34.898Z,2.23
2019-01-28T04:11:24.523Z,3.33
2019-01-28T04:14:13.839Z,1.57
2019-01-28T04:17:03.010Z,1.37
2019-01-28T04:19:33.285Z,2.57
2019-01-28T04:22:22.851Z,3.27
2019-01-28T04:25:12.259Z,1.43
2019-01-28T04:28:01.549Z,1.40
2019-01-28T04:30:50.964Z,4.03
2019-01-28T04:33:30.766Z,2.50
2019-01-28T04:38:44.620Z,1.30
2019-01-28T04:41:14.708Z,2.97
2019-01-28T04:47:43.846Z,1.80
2019-01-28T04:50:15.945Z,1.33
2019-01-28T04:52:46.386Z,2.00
2019-01-28T04:55:16.957Z,3.13
2019-01-28T04:58:06.133Z,2.27
2019-01-28T05:00:55.334Z,1.13
2019-01-28T05:03:44.982Z,1.57
2019-01-28T05:06:34.290Z,3.60
2019-01-28T05:09:23.474Z,1.83
2019-01-28T05:12:12.681Z,2.20
2019-01-28T05:14:42.848Z,1.00
2019-01-28T05:17:31.983Z,0.80
2019-01-28T05:20:02.133Z,1.63
2019-01-28T05:22:32.422Z,2.23
2019-01-28T05:25:21.661Z,3.10
2019-01-28T05:28:30.045Z,0.70
2019-01-28T05:31:00.220Z,2.03
2019-01-28T05:33:31.357Z,2.87
2019-01-28T05:36:20.592Z,0.93
2019-01-28T05:38:50.732Z,1.50
2019-01-28T05:41:40.178Z,0.77
2019-01-28T05:44:29.402Z,0.77
2019-01-28T05:46:59.655Z,2.90
2019-01-28T05:49:48.926Z,1.07
2019-01-28T05:52:38.313Z,1.97
2019-01-28T05:55:27.773Z,3.37
2019-01-28T05:57:57.968Z,3.77
2019-01-28T06:00:34.666Z,1.53
2019-01-28T06:03:06.400Z,1.20
2019-01-28T06:05:36.621Z,1.90
2019-01-28T06:08:25.878Z,0.53
2019-01-28T06:11:15.479Z,0.90
2019-01-28T06:13:45.698Z,0.80
2019-01-28T06:16:35.109Z,0.93
2019-01-28T06:19:24.385Z,0.73
2019-01-28T06:21:54.643Z,0.60
2019-01-28T06:24:25.027Z,1.40
2019-01-28T06:27:14.236Z,1.00
2019-01-28T06:30:03.688Z,0.70
2019-01-28T06:32:53.336Z,0.80
2019-01-28T06:35:23.611Z,0.60
2019-01-28T06:37:54.454Z,0.73
2019-01-28T06:40:26.985Z,0.87
2019-01-28T06:43:16.850Z,0.73
2019-01-28T06:45:47.137Z,0.97
2019-01-28T06:48:18.563Z,1.33
2019-01-28T06:51:07.889Z,0.77
2019-01-28T06:53:57.044Z,1.00
2019-01-28T06:56:27.522Z,1.13
2019-01-28T06:58:58.133Z,1.90
2019-01-28T07:01:50.327Z,1.23
2019-01-28T07:04:20.906Z,1.70
2019-01-28T07:07:10.395Z,1.57
2019-01-28T07:09:40.580Z,3.60
2019-01-28T07:12:11.115Z,2.77
2019-01-28T07:14:41.235Z,1.27
2019-01-28T07:17:12.666Z,4.13
2019-01-28T07:20:02.613Z,1.43
2019-01-28T07:22:52.141Z,1.13
2019-01-28T07:25:22.309Z,1.40
2019-01-28T07:28:02.597Z,1.73
2019-01-28T07:30:36.186Z,2.60
2019-01-28T07:33:07.473Z,1.70
2019-01-28T07:35:37.990Z,2.00
2019-01-28T07:38:10.230Z,3.67
2019-01-28T07:40:40.376Z,1.10
2019-01-28T07:43:11.174Z,1.00
2019-01-28T07:45:45.469Z,1.00
2019-01-28T07:48:13.279Z,4.87
2019-01-28T07:50:50.698Z,0.93
2019-01-28T07:53:20.971Z,1.07
2019-01-28T07:55:51.107Z,7.60
2019-01-28T07:58:50.292Z,2.53
2019-01-28T08:01:23.154Z,1.63
2019-01-28T08:03:56.411Z,1.47
2019-01-28T08:06:26.983Z,1.63
2019-01-28T08:08:58.429Z,1.40
2019-01-28T08:11:28.623Z,1.27
2019-01-28T08:13:58.858Z,0.77
2019-01-28T08:16:29.011Z,2.10
2019-01-28T08:19:00.416Z,1.27
2019-01-28T08:21:33.061Z,0.80
2019-01-28T08:24:03.212Z,3.17
2019-01-28T08:26:33.435Z,1.60
2019-01-28T08:29:04.939Z,2.40
2019-01-28T08:31:35.385Z,1.23
2019-01-28T08:34:05.565Z,4.63
2019-01-28T08:36:35.666Z,4.03
2019-01-28T08:39:09.178Z,1.30
2019-01-28T08:41:39.409Z,1.80
2019-01-28T08:44:09.838Z,2.53
2019-01-28T08:46:39.971Z,1.47
2019-01-28T08:49:10.129Z,1.60
2019-01-28T08:51:40.561Z,2.60
2019-01-28T08:54:10.960Z,0.87
2019-01-28T08:56:41.100Z,2.83
2019-01-28T08:59:11.645Z,2.70
2019-01-28T09:01:41.774Z,1.40
2019-01-28T09:04:11.963Z,1.30
2019-01-28T09:06:45.588Z,3.10
2019-01-28T09:09:16.524Z,1.10
2019-01-28T09:11:47.687Z,2.97
2019-01-28T09:14:17.998Z,1.77
2019-01-28T09:16:48.405Z,1.20
2019-01-28T09:19:18.618Z,1.80
2019-01-28T09:21:48.817Z,1.40
2019-01-28T09:24:18.983Z,1.00
2019-01-28T09:26:49.074Z,0.90
2019-01-28T09:29:19.347Z,1.53
2019-01-28T09:31:49.714Z,3.83
2019-01-28T09:34:19.961Z,1.27
2019-01-28T09:36:51.470Z,1.73
2019-01-28T09:39:23.902Z,1.43
2019-01-28T09:41:54.089Z,1.50
2019-01-28T09:44:24.445Z,2.23
2019-01-28T09:46:54.642Z,1.33
2019-01-28T09:49:25.181Z,2.57
2019-01-28T09:51:55.346Z,1.37
2019-01-28T09:54:25.620Z,2.97
2019-01-28T09:56:55.725Z,1.47
2019-01-28T09:59:25.963Z,2.03
2019-01-28T10:01:57.470Z,1.10
2019-01-28T10:04:27.799Z,1.80
2019-01-28T10:06:57.925Z,1.60
2019-01-28T10:09:28.050Z,3.17
2019-01-28T10:11:58.180Z,3.47
2019-01-28T10:14:28.577Z,1.70
2019-01-28T10:16:58.660Z,1.23
2019-01-28T10:19:28.807Z,2.27
2019-01-28T10:21:58.955Z,2.40
2019-01-28T10:24:29.406Z,1.10
2019-01-28T10:26:59.931Z,2.40
2019-01-28T10:29:30.563Z,2.17
2019-01-28T10:32:00.698Z,2.43
2019-01-28T10:34:31.163Z,2.13
2019-01-28T10:37:01.614Z,1.47
2019-01-28T10:39:31.739Z,3.03
2019-01-28T10:42:01.961Z,2.00
2019-01-28T10:44:32.425Z,2.53
2019-01-28T10:47:05.991Z,2.30
2019-01-28T10:49:39.561Z,1.70
2019-01-28T10:52:09.970Z,2.70
2019-01-28T10:54:40.228Z,3.53
2019-01-28T10:57:43.330Z,3.47
2019-01-28T11:00:19.950Z,2.20
2019-01-28T11:02:53.701Z,1.60
2019-01-28T11:05:24.115Z,2.60
2019-01-28T11:07:58.704Z,2.80
2019-01-28T11:10:33.377Z,1.80
2019-01-28T11:13:05.218Z,1.97
2019-01-28T11:15:36.873Z,3.13
2019-01-28T11:18:13.321Z,1.27
2019-01-28T11:20:43.593Z,3.63
2019-01-28T11:23:15.548Z,3.90
2019-01-28T11:25:47.020Z,5.23
2019-01-28T11:28:18.870Z,5.50
2019-01-28T11:30:54.287Z,3.27
2019-01-28T11:33:24.435Z,1.90
2019-01-28T11:35:55.692Z,2.47
2019-01-28T11:38:26.139Z,3.70
2019-01-28T11:40:56.656Z,2.30
2019-01-28T11:43:26.901Z,3.37
2019-01-28T11:46:05.059Z,5.73
2019-01-28T11:48:35.315Z,4.23
2019-01-28T11:51:05.915Z,2.60
2019-01-28T11:53:36.394Z,3.20
2019-01-28T11:56:06.741Z,3.03
2019-01-28T11:58:36.841Z,2.70
2019-01-28T12:01:36.592Z,3.80
2019-01-28T12:04:06.693Z,2.60
2019-01-28T12:06:36.894Z,3.87
2019-01-28T12:09:11.532Z,2.47
2019-01-28T12:11:41.637Z,5.07
2019-01-28T12:14:11.792Z,2.57
2019-01-28T12:16:42.204Z,2.57
2019-01-28T12:19:14.257Z,3.43
2019-01-28T12:21:44.408Z,4.37
2019-01-28T12:24:14.887Z,2.50
2019-01-28T12:26:45.727Z,3.33
2019-01-28T12:29:15.868Z,6.73
2019-01-28T12:31:46.265Z,3.77
2019-01-28T12:34:16.646Z,5.20
2019-01-28T12:36:46.815Z,5.50
2019-01-28T12:39:16.894Z,2.93
2019-01-28T12:41:47.021Z,4.10
2019-01-28T12:44:17.491Z,2.63
2019-01-28T12:46:47.678Z,4.47
2019-01-28T12:49:22.083Z,1.67
2019-01-28T12:51:52.610Z,4.47
2019-01-28T12:54:22.809Z,6.00
2019-01-28T12:56:53.193Z,2.47
2019-01-28T12:59:23.399Z,4.23
2019-01-28T13:01:53.619Z,2.33
2019-01-28T13:04:23.804Z,1.60
2019-01-28T13:06:54.270Z,3.03
2019-01-28T13:09:24.589Z,5.07
2019-01-28T13:11:54.783Z,2.97
2019-01-28T13:14:24.904Z,2.97
2019-01-28T13:16:55.303Z,5.40
2019-01-28T13:19:30.081Z,3.23
2019-01-28T13:21:57.256Z,4.17
2019-01-28T13:24:27.719Z,2.33
2019-01-28T13:26:57.829Z,2.63
2019-01-28T13:29:27.950Z,3.60
2019-01-28T13:31:58.068Z,2.97
2019-01-28T13:34:28.582Z,4.43
2019-01-28T13:36:58.682Z,3.37
2019-01-28T13:39:28.781Z,4.33
2019-01-28T13:41:59.212Z,3.40
2019-01-28T13:44:29.382Z,2.70
2019-01-28T13:46:59.536Z,3.03
2019-01-28T13:49:29.735Z,4.63
2019-01-28T13:51:59.887Z,3.60
2019-01-28T13:54:30.196Z,2.60
2019-01-28T13:57:04.632Z,3.73
2019-01-28T13:59:35.168Z,4.73
2019-01-28T14:02:05.708Z,3.70
2019-01-28T14:04:36.178Z,5.00
2019-01-28T14:07:06.757Z,2.10
2019-01-28T14:09:37.178Z,1.77
2019-01-28T14:12:07.621Z,2.73
2019-01-28T14:14:38.046Z,1.40
2019-01-28T14:17:08.475Z,2.97
2019-01-28T14:19:46.064Z,8.47
2019-01-28T14:22:10.993Z,1.63
2019-01-28T14:24:41.619Z,3.77
2019-01-28T14:27:12.030Z,4.87
2019-01-28T14:29:42.143Z,2.73
2019-01-28T14:32:12.390Z,3.63
2019-01-28T14:34:43.993Z,6.53
2019-01-28T14:37:14.464Z,3.13
2019-01-28T14:39:44.687Z,1.27
2019-01-28T14:42:15.269Z,2.97
2019-01-28T14:44:45.666Z,1.60
2019-01-28T14:47:18.305Z,2.13
2019-01-28T14:49:54.463Z,1.70
2019-01-28T14:52:20.727Z,1.97
2019-01-28T14:54:53.109Z,1.87
2019-01-28T14:57:24.763Z,6.63
2019-01-28T14:59:54.956Z,3.40
2019-01-28T15:02:26.354Z,1.90
2019-01-28T15:04:58.419Z,4.30
2019-01-28T15:07:32.114Z,1.50
2019-01-28T15:10:04.160Z,0.90
2019-01-28T15:12:44.623Z,4.23
2019-01-28T15:15:23.840Z,6.33
2019-01-28T15:17:57.014Z,1.47
2019-01-28T15:20:30.872Z,1.30
2019-01-28T15:23:04.294Z,1.57
2019-01-28T15:25:34.942Z,2.60
2019-01-28T15:28:05.777Z,1.17
2019-01-28T15:31:09.014Z,2.20
2019-01-28T15:33:39.889Z,0.60
2019-01-28T15:36:14.827Z,1.07
2019-01-28T15:38:47.166Z,2.73
2019-01-28T15:41:17.765Z,2.33
2019-01-28T15:44:02.324Z,2.20
2019-01-28T15:46:52.347Z,2.57
2019-01-28T15:49:22.673Z,2.30
2019-01-28T15:52:19.535Z,3.60
2019-01-28T15:54:53.697Z,0.90
2019-01-28T15:57:24.886Z,2.10
2019-01-28T15:59:55.717Z,3.77
2019-01-28T16:03:04.482Z,1.53
2019-01-28T16:05:37.909Z,1.20
2019-01-28T16:08:09.245Z,1.10
2019-01-28T16:11:26.722Z,2.10
2019-01-28T16:13:57.470Z,1.10
2019-01-28T16:16:53.528Z,0.97
2019-01-28T16:19:23.872Z,3.33
2019-01-28T16:21:57.959Z,1.20
2019-01-28T16:24:28.789Z,1.27
2019-01-28T16:27:03.721Z,1.83
2019-01-28T16:29:34.119Z,1.43
2019-01-28T16:32:07.097Z,0.80
2019-01-28T16:34:37.641Z,0.70
2019-01-28T16:37:08.220Z,1.43
2019-01-28T16:39:42.179Z,1.33
2019-01-28T16:42:19.470Z,1.00
2019-01-28T16:44:52.065Z,2.23
2019-01-28T16:47:28.839Z,5.30
2019-01-28T16:50:02.956Z,6.40
2019-01-28T16:52:33.283Z,5.37
2019-01-28T16:55:06.081Z,1.73
2019-01-28T16:57:36.319Z,2.47
2019-01-28T17:00:10.888Z,1.93
2019-01-28T17:02:44.009Z,0.87
2019-01-28T17:05:15.676Z,1.10
2019-01-28T17:07:46.149Z,1.60
2019-01-28T17:10:22.272Z,1.33
2019-01-28T17:13:21.206Z,1.30
2019-01-28T17:15:53.578Z,1.40
2019-01-28T17:18:29.641Z,1.17
2019-01-28T17:21:08.969Z,1.40
2019-01-28T17:23:55.273Z,1.83
2019-01-28T17:26:39.923Z,3.00
2019-01-28T17:29:51.602Z,2.20
2019-01-28T17:32:33.288Z,2.10
2019-01-28T17:35:33.403Z,3.27
2019-01-28T17:38:43.709Z,4.73
2019-01-28T17:41:21.563Z,5.57
2019-01-28T17:44:01.702Z,4.07
2019-01-28T17:46:42.241Z,2.93
2019-01-28T17:49:18.085Z,4.90
2019-01-28T17:51:50.567Z,2.73
2019-01-28T17:54:22.504Z,5.00
2019-01-28T17:56:54.036Z,4.83
2019-01-28T17:59:24.722Z,4.67
2019-01-28T18:01:56.129Z,5.87
2019-01-28T18:04:27.702Z,4.80
2019-01-28T18:06:58.231Z,5.00
2019-01-28T18:09:29.353Z,7.50
2019-01-28T18:11:59.601Z,5.53
2019-01-28T18:14:29.822Z,4.37
2019-01-28T18:17:04.756Z,4.83
2019-01-28T18:19:36.552Z,5.60
2019-01-28T18:22:07.553Z,5.33
2019-01-28T18:24:38.551Z,7.90
2019-01-28T18:27:10.653Z,5.53
2019-01-28T18:29:42.069Z,7.13
2019-01-28T18:32:13.064Z,5.47
2019-01-28T18:34:43.389Z,7.90
2019-01-28T18:37:18.198Z,8.53
2019-01-28T18:39:48.639Z,9.60
2019-01-28T18:42:28.814Z,11.33
2019-01-28T18:44:59.925Z,10.60
2019-01-28T18:47:32.431Z,12.03
2019-01-28T18:50:13.182Z,11.17
2019-01-28T18:52:46.875Z,17.27
2019-01-28T18:55:17.694Z,11.27
2019-01-28T18:57:51.031Z,7.83
2019-01-28T19:00:29.537Z,7.03
2019-01-28T19:03:02.622Z,13.43
2019-01-28T19:05:51.943Z,17.10
2019-01-28T19:08:39.773Z,9.70
2019-01-28T19:11:32.724Z,10.03
2019-01-28T19:14:42.706Z,8.33
2019-01-28T19:17:41.082Z,10.63
2019-01-28T19:20:20.505Z,12.60
2019-01-28T19:22:50.762Z,8.03
2019-01-28T19:25:21.616Z,10.87
2019-01-28T19:27:54.222Z,14.67
2019-01-28T19:30:30.028Z,8.97
2019-01-28T19:33:11.553Z,12.13
2019-01-28T19:35:52.696Z,11.03
2019-01-28T19:38:23.074Z,12.00
2019-01-28T19:41:03.231Z,12.33
2019-01-28T19:44:06.375Z,9.07
2019-01-28T19:50:16.570Z,8.50
2019-01-28T19:52:47.185Z,11.73
2019-01-28T19:55:17.604Z,11.00
2019-01-28T19:57:47.880Z,6.77
2019-01-28T20:00:29.279Z,7.93
2019-01-28T20:03:02.389Z,13.80
2019-01-28T20:05:32.764Z,7.77
2019-01-28T20:08:03.335Z,4.83
2019-01-28T20:10:34.277Z,7.57
2019-01-28T20:13:04.425Z,10.80
2019-01-28T20:15:35.914Z,7.33
2019-01-28T20:18:06.109Z,9.63
2019-01-28T20:20:36.348Z,7.10
2019-01-28T20:23:07.340Z,7.13
2019-01-28T20:25:40.452Z,13.40
2019-01-28T20:28:13.526Z,5.87
2019-01-28T20:30:43.827Z,8.90
2019-01-28T20:33:14.447Z,8.90
2019-01-28T20:35:44.890Z,8.90
2019-01-28T20:38:16.022Z,7.70
2019-01-28T20:40:46.259Z,9.63
2019-01-28T20:43:23.840Z,9.33
2019-01-28T20:45:49.538Z,5.67
2019-01-28T20:48:19.958Z,10.03
2019-01-28T20:50:50.465Z,11.50
2019-01-28T20:53:27.158Z,11.13
2019-01-28T20:55:58.729Z,6.37
2019-01-28T20:58:30.995Z,9.93
2019-01-28T21:01:06.075Z,7.77
2019-01-28T21:03:36.537Z,9.57
2019-01-28T21:06:07.280Z,10.93
2019-01-28T21:08:37.894Z,8.10
2019-01-28T21:11:08.094Z,11.60
2019-01-28T21:13:38.332Z,11.90
2019-01-28T21:16:08.704Z,6.77
2019-01-28T21:18:38.860Z,6.10
2019-01-28T21:21:09.029Z,6.87
2019-01-28T21:23:39.626Z,4.33
2019-01-28T21:26:10.088Z,5.77
2019-01-28T21:28:40.331Z,8.40
2019-01-28T21:31:10.815Z,8.43
2019-01-28T21:33:42.280Z,6.87
2019-01-28T21:36:40.208Z,7.10
2019-01-28T21:39:13.442Z,8.37
2019-01-28T21:41:47.164Z,3.87
2019-01-28T21:44:17.729Z,7.73
2019-01-28T21:46:47.849Z,8.70
2019-01-28T21:49:18.112Z,8.70
2019-01-28T21:51:50.720Z,8.23
2019-01-28T21:54:22.398Z,8.80
2019-01-28T21:56:56.327Z,8.57
2019-01-28T21:59:26.540Z,5.43
2019-01-28T22:01:56.853Z,6.23
2019-01-28T22:04:27.499Z,5.47
2019-01-28T22:06:57.695Z,8.87
2019-01-28T22:09:27.909Z,7.77
2019-01-28T22:11:59.392Z,5.57
2019-01-28T22:14:29.556Z,7.90
2019-01-28T22:17:00.019Z,5.77
2019-01-28T22:19:30.146Z,7.73
2019-01-28T22:22:00.335Z,4.43
2019-01-28T22:24:32.637Z,8.00
2019-01-28T22:27:03.242Z,7.47
2019-01-28T22:29:34.166Z,9.60
2019-01-28T22:32:04.291Z,6.03
2019-01-28T22:34:35.432Z,10.87
2019-01-28T22:37:06.022Z,7.60
2019-01-28T22:39:36.239Z,6.53
2019-01-28T22:42:06.458Z,4.93
2019-01-28T22:44:37.264Z,5.97
2019-01-28T22:47:07.745Z,8.90
2019-01-28T22:49:38.024Z,6.60
2019-01-28T22:52:08.338Z,12.63
2019-01-28T22:54:38.566Z,7.67
2019-01-28T22:57:08.712Z,7.20
2019-01-28T22:59:39.671Z,7.93
2019-01-28T23:02:10.066Z,7.37
2019-01-28T23:04:43.310Z,8.43
2019-01-28T23:07:14.010Z,7.23
2019-01-28T23:09:44.673Z,6.87
2019-01-28T23:12:15.391Z,5.67
2019-01-28T23:14:46.641Z,6.43
2019-01-28T23:17:17.016Z,6.37
2019-01-28T23:19:47.693Z,7.37
2019-01-28T23:22:18.923Z,5.20
2019-01-28T23:24:49.507Z,6.60
2019-01-28T23:27:19.726Z,6.53
2019-01-28T23:29:50.305Z,6.30
2019-01-28T23:32:20.453Z,7.27
2019-01-28T23:34:50.558Z,6.87
2019-01-28T23:38:03.854Z,7.50
2019-01-28T23:40:34.026Z,7.20
2019-01-28T23:43:04.912Z,9.97
2019-01-28T23:45:35.686Z,7.17
2019-01-28T23:48:05.876Z,7.90
2019-01-28T23:50:36.119Z,5.60
2019-01-28T23:53:06.267Z,5.30
2019-01-28T23:55:36.690Z,6.00
2019-01-28T23:58:11.104Z,5.93
